createdAt,value
2022-12-05T00:00:30.748Z,42.37
2022-12-05T00:01:30.708Z,42.35
2022-12-05T00:02:30.804Z,42.35
2022-12-05T00:03:30.678Z,42.37
2022-12-05T00:04:30.765Z,42.55
2022-12-05T00:05:30.698Z,42.25
2022-12-05T00:06:30.683Z,42.35
2022-12-05T00:07:30.713Z,42.25
2022-12-05T00:08:30.655Z,42.45
2022-12-05T00:09:30.613Z,42.35
2022-12-05T00:10:30.670Z,42.35
2022-12-05T00:11:30.630Z,42.35
2022-12-05T00:12:30.641Z,42.45
2022-12-05T00:13:30.650Z,42.35
2022-12-05T00:14:30.598Z,42.25
2022-12-05T00:15:30.559Z,42.25
2022-12-05T00:16:30.786Z,42.37
2022-12-05T00:17:30.882Z,42.25
2022-12-05T00:18:30.565Z,42.37
2022-12-05T00:19:30.543Z,42.27
2022-12-05T00:20:30.541Z,42.25
2022-12-05T00:21:30.495Z,42.35
2022-12-05T00:22:30.531Z,42.35
2022-12-05T00:23:30.515Z,42.25
2022-12-05T00:24:30.555Z,42.27
2022-12-05T00:25:30.481Z,42.15
2022-12-05T00:26:30.549Z,42.25
2022-12-05T00:27:30.447Z,42.27
2022-12-05T00:28:30.451Z,42.25
2022-12-05T00:29:30.420Z,42.37
2022-12-05T00:30:30.455Z,42.25
2022-12-05T00:31:30.467Z,42.27
2022-12-05T00:32:30.399Z,42.27
2022-12-05T00:33:30.369Z,42.27
2022-12-05T00:34:30.404Z,42.25
2022-12-05T00:35:30.341Z,42.15
2022-12-05T00:36:30.390Z,42.15
2022-12-05T00:37:30.378Z,42.27
2022-12-05T00:38:30.337Z,42.27
2022-12-05T00:39:30.332Z,42.17
2022-12-05T00:40:30.315Z,42.27
2022-12-05T00:41:30.303Z,42.27
2022-12-05T00:42:30.327Z,42.27
2022-12-05T00:43:30.262Z,42.17
2022-12-05T00:44:30.330Z,42.17
2022-12-05T00:45:30.286Z,42.17
2022-12-05T00:46:30.360Z,42.05
2022-12-05T00:47:30.215Z,42.05
2022-12-05T00:48:30.265Z,42.17
2022-12-05T00:49:30.219Z,42.15
2022-12-05T00:50:30.291Z,42.05
2022-12-05T00:51:30.200Z,42.07
2022-12-05T00:52:30.415Z,42.05
2022-12-05T00:53:30.204Z,42.17
2022-12-05T00:54:30.214Z,42.07
2022-12-05T00:55:30.153Z,42.07
2022-12-05T00:56:30.186Z,42.17
2022-12-05T00:57:30.133Z,42.17
2022-12-05T00:58:30.127Z,42.17
2022-12-05T00:59:30.130Z,42.17
2022-12-05T01:00:30.138Z,42.17
2022-12-05T01:01:30.285Z,42.17
2022-12-05T01:02:30.123Z,42.17
2022-12-05T01:03:30.184Z,42.15
2022-12-05T01:04:30.033Z,42.17
2022-12-05T01:05:30.060Z,42.17
2022-12-05T01:06:30.147Z,42.17
2022-12-05T01:07:30.110Z,42.17
2022-12-05T01:08:30.033Z,42.07
2022-12-05T01:09:30.056Z,42.07
2022-12-05T01:10:30.010Z,41.97
2022-12-05T01:11:30.018Z,42.07
2022-12-05T01:12:30.008Z,42.05
2022-12-05T01:13:29.964Z,41.95
2022-12-05T01:14:29.981Z,41.95
2022-12-05T01:15:29.962Z,42.07
2022-12-05T01:16:30.163Z,41.97
2022-12-05T01:17:29.974Z,42.07
2022-12-05T01:18:29.894Z,42.07
2022-12-05T01:19:29.918Z,41.97
2022-12-05T01:20:29.896Z,42.17
2022-12-05T01:21:29.911Z,42.07
2022-12-05T01:22:29.923Z,42.07
2022-12-05T01:23:29.885Z,42.17
2022-12-05T01:24:29.921Z,42.05
2022-12-05T01:25:29.855Z,42.07
2022-12-05T01:26:29.837Z,42.07
2022-12-05T01:27:29.820Z,42.05
2022-12-05T01:28:29.819Z,42.07
2022-12-05T01:29:29.831Z,42.07
2022-12-05T01:30:29.765Z,41.95
2022-12-05T01:31:29.861Z,41.95
2022-12-05T01:32:29.764Z,41.95
2022-12-05T01:33:29.763Z,41.95
2022-12-05T01:34:29.745Z,41.95
2022-12-05T01:35:29.860Z,41.95
2022-12-05T01:36:29.756Z,41.95
2022-12-05T01:37:29.717Z,41.95
2022-12-05T01:38:29.741Z,41.95
2022-12-05T01:39:29.697Z,42.07
2022-12-05T01:40:29.690Z,42.05
2022-12-05T01:41:29.707Z,41.95
2022-12-05T01:42:29.630Z,41.95
2022-12-05T01:43:29.676Z,41.95
2022-12-05T01:44:29.610Z,41.95
2022-12-05T01:45:29.679Z,41.95
2022-12-05T01:46:29.723Z,41.95
2022-12-05T01:47:29.677Z,41.95
2022-12-05T01:48:29.604Z,41.95
2022-12-05T01:49:29.619Z,41.95
2022-12-05T01:50:29.550Z,41.85
2022-12-05T01:51:29.572Z,41.95
2022-12-05T01:52:29.557Z,41.95
2022-12-05T01:53:29.571Z,41.95
2022-12-05T01:54:29.514Z,41.95
2022-12-05T01:55:29.557Z,41.95
2022-12-05T01:56:29.485Z,41.85
2022-12-05T01:57:29.510Z,41.95
2022-12-05T01:58:29.492Z,41.95
2022-12-05T01:59:29.480Z,41.87
2022-12-05T02:00:29.475Z,41.95
2022-12-05T02:01:29.558Z,41.95
2022-12-05T02:02:29.494Z,42.05
2022-12-05T02:03:29.475Z,41.95
2022-12-05T02:04:29.429Z,41.85
2022-12-05T02:05:29.421Z,41.95
2022-12-05T02:06:29.404Z,41.87
2022-12-05T02:07:29.426Z,41.95
2022-12-05T02:08:29.411Z,41.97
2022-12-05T02:09:29.452Z,41.95
2022-12-05T02:10:29.451Z,41.97
2022-12-05T02:11:29.379Z,41.97
2022-12-05T02:12:29.315Z,41.95
2022-12-05T02:13:29.357Z,41.85
2022-12-05T02:14:29.318Z,41.85
2022-12-05T02:15:29.453Z,41.85
2022-12-05T02:16:29.408Z,41.87
2022-12-05T02:17:29.322Z,41.95
2022-12-05T02:18:29.421Z,41.95
2022-12-05T02:19:29.469Z,41.97
2022-12-05T02:20:29.230Z,42.07
2022-12-05T02:21:29.279Z,41.85
2022-12-05T02:22:29.239Z,41.97
2022-12-05T02:23:29.253Z,41.95
2022-12-05T02:24:29.315Z,41.95
2022-12-05T02:25:29.230Z,41.95
2022-12-05T02:26:29.218Z,41.97
2022-12-05T02:27:29.192Z,41.97
2022-12-05T02:28:29.213Z,41.85
2022-12-05T02:29:29.198Z,41.85
2022-12-05T02:30:29.153Z,41.87
2022-12-05T02:31:29.262Z,41.95
2022-12-05T02:32:29.105Z,41.95
2022-12-05T02:33:29.122Z,41.95
2022-12-05T02:34:29.221Z,41.95
2022-12-05T02:35:29.193Z,41.87
2022-12-05T02:36:29.090Z,41.95
2022-12-05T02:37:29.119Z,41.97
2022-12-05T02:38:29.041Z,41.97
2022-12-05T02:39:29.153Z,41.95
2022-12-05T02:40:29.065Z,41.87
2022-12-05T02:41:29.065Z,41.85
2022-12-05T02:42:29.002Z,41.95
2022-12-05T02:43:29.039Z,41.97
2022-12-05T02:44:29.014Z,41.97
2022-12-05T02:45:29.050Z,41.97
2022-12-05T02:46:29.108Z,41.87
2022-12-05T02:47:28.973Z,41.97
2022-12-05T02:48:29.000Z,41.97
2022-12-05T02:49:28.981Z,41.97
2022-12-05T02:50:28.912Z,41.85
2022-12-05T02:51:28.972Z,41.85
2022-12-05T02:52:28.894Z,41.85
2022-12-05T02:53:29.070Z,41.95
2022-12-05T02:54:28.902Z,41.95
2022-12-05T02:55:28.926Z,41.97
2022-12-05T02:56:28.853Z,41.85
2022-12-05T02:57:28.894Z,41.85
2022-12-05T02:58:28.865Z,41.97
2022-12-05T02:59:28.847Z,41.85
2022-12-05T03:00:28.862Z,41.85
2022-12-05T03:01:29.268Z,41.95
2022-12-05T03:02:28.786Z,41.85
2022-12-05T03:03:28.851Z,41.85
2022-12-05T03:04:28.844Z,41.95
2022-12-05T03:05:28.797Z,41.87
2022-12-05T03:06:28.882Z,41.85
2022-12-05T03:07:28.906Z,41.85
2022-12-05T03:08:28.752Z,41.85
2022-12-05T03:09:28.772Z,41.85
2022-12-05T03:10:28.709Z,41.95
2022-12-05T03:11:28.759Z,41.85
2022-12-05T03:12:28.687Z,41.85
2022-12-05T03:13:28.792Z,41.85
2022-12-05T03:14:28.688Z,41.95
2022-12-05T03:15:28.681Z,41.95
2022-12-05T03:16:28.732Z,41.85
2022-12-05T03:18:38.635Z,41.85
2022-12-05T03:19:39.748Z,41.85
2022-12-05T03:20:39.688Z,41.85
2022-12-05T03:21:39.664Z,41.85
2022-12-05T03:22:39.630Z,41.87
2022-12-05T03:23:39.682Z,41.87
2022-12-05T03:24:39.613Z,41.95
2022-12-05T03:25:39.720Z,41.87
2022-12-05T03:26:39.571Z,41.95
2022-12-05T03:27:39.571Z,41.97
2022-12-05T03:28:39.645Z,41.85
2022-12-05T03:29:39.553Z,41.97
2022-12-05T03:30:39.801Z,41.85
2022-12-05T03:31:39.548Z,41.97
2022-12-05T03:32:39.527Z,41.87
2022-12-05T03:33:39.482Z,41.85
2022-12-05T03:34:39.645Z,41.87
2022-12-05T03:35:39.488Z,41.97
2022-12-05T03:36:39.476Z,41.97
2022-12-05T03:37:39.504Z,41.97
2022-12-05T03:38:39.543Z,41.87
2022-12-05T03:39:39.672Z,41.85
2022-12-05T03:40:39.461Z,41.87
2022-12-05T03:41:39.387Z,41.87
2022-12-05T03:42:39.443Z,41.97
2022-12-05T03:43:39.578Z,41.85
2022-12-05T03:44:39.543Z,41.87
2022-12-05T03:45:39.440Z,41.85
2022-12-05T03:46:39.658Z,41.85
2022-12-05T03:47:39.330Z,41.85
2022-12-05T03:48:39.417Z,41.85
2022-12-05T03:49:39.331Z,41.75
2022-12-05T03:50:39.420Z,41.75
2022-12-05T03:51:39.298Z,41.85
2022-12-05T03:53:03.710Z,41.85
2022-12-05T03:53:39.266Z,41.85
2022-12-05T03:54:39.305Z,41.85
2022-12-05T03:55:39.276Z,41.77
2022-12-05T03:56:39.638Z,41.95
2022-12-05T03:57:39.253Z,41.85
2022-12-05T03:58:39.234Z,41.85
2022-12-05T03:59:39.195Z,41.85
2022-12-05T04:00:39.258Z,41.85
2022-12-05T04:01:39.206Z,41.85
2022-12-05T04:02:39.218Z,41.85
2022-12-05T04:03:39.894Z,41.85
2022-12-05T04:04:39.543Z,41.85
2022-12-05T04:05:39.159Z,41.85
2022-12-05T04:06:39.246Z,41.85
2022-12-05T04:07:39.230Z,41.75
2022-12-05T04:08:39.382Z,41.85
2022-12-05T04:09:39.307Z,41.85
2022-12-05T04:10:39.116Z,41.75
2022-12-05T04:11:39.072Z,41.75
2022-12-05T04:12:39.115Z,41.75
2022-12-05T04:13:39.051Z,41.85
2022-12-05T04:14:39.105Z,41.75
2022-12-05T04:15:39.225Z,41.75
2022-12-05T04:16:39.063Z,41.75
2022-12-05T04:17:39.032Z,41.85
2022-12-05T04:18:39.136Z,41.85
2022-12-05T04:19:38.988Z,41.85
2022-12-05T04:20:39.213Z,41.75
2022-12-05T04:21:39.037Z,41.75
2022-12-05T04:22:38.970Z,41.85
2022-12-05T04:23:42.355Z,41.75
2022-12-05T04:24:38.992Z,41.75
2022-12-05T04:25:39.453Z,41.66
2022-12-05T04:26:38.959Z,41.75
2022-12-05T04:27:38.930Z,41.66
2022-12-05T04:28:38.910Z,41.75
2022-12-05T04:29:38.951Z,41.75
2022-12-05T04:30:39.042Z,41.75
2022-12-05T04:31:38.949Z,41.66
2022-12-05T04:32:38.900Z,41.66
2022-12-05T04:33:39.052Z,41.75
2022-12-05T04:34:39.232Z,41.66
2022-12-05T04:35:39.123Z,41.75
2022-12-05T04:36:38.822Z,41.66
2022-12-05T04:37:39.408Z,41.75
2022-12-05T04:38:38.847Z,41.66
2022-12-05T04:39:38.937Z,41.66
2022-12-05T04:40:38.922Z,41.66
2022-12-05T04:41:38.748Z,41.66
2022-12-05T04:42:39.063Z,41.75
2022-12-05T04:43:38.910Z,41.66
2022-12-05T04:44:38.844Z,41.75
2022-12-05T04:45:38.923Z,41.66
2022-12-05T04:46:38.819Z,41.66
2022-12-05T04:47:38.680Z,41.55
2022-12-05T04:48:38.763Z,41.66
2022-12-05T04:49:38.652Z,41.66
2022-12-05T04:50:38.699Z,41.66
2022-12-05T04:51:38.663Z,41.66
2022-12-05T04:52:38.744Z,41.66
2022-12-05T04:53:39.430Z,41.66
2022-12-05T04:54:38.653Z,41.55
2022-12-05T04:55:38.620Z,41.66
2022-12-05T04:56:38.605Z,41.66
2022-12-05T04:57:38.641Z,41.66
2022-12-05T04:58:38.618Z,41.66
2022-12-05T04:59:38.548Z,41.66
2022-12-05T05:00:38.615Z,41.66
2022-12-05T05:01:38.638Z,41.75
2022-12-05T05:02:38.608Z,41.66
2022-12-05T05:03:38.526Z,41.66
2022-12-05T05:04:38.549Z,41.66
2022-12-05T05:05:38.507Z,41.66
2022-12-05T05:06:38.501Z,41.66
2022-12-05T05:07:38.554Z,41.66
2022-12-05T05:08:38.498Z,41.66
2022-12-05T05:09:38.467Z,41.66
2022-12-05T05:10:38.588Z,41.66
2022-12-05T05:11:38.415Z,41.75
2022-12-05T05:12:38.470Z,41.66
2022-12-05T05:13:38.398Z,41.66
2022-12-05T05:14:38.507Z,41.66
2022-12-05T05:15:38.459Z,41.66
2022-12-05T05:16:38.407Z,41.75
2022-12-05T05:17:38.380Z,41.66
2022-12-05T05:18:38.376Z,41.66
2022-12-05T05:19:38.333Z,41.66
2022-12-05T05:20:38.375Z,41.75
2022-12-05T05:21:38.305Z,41.66
2022-12-05T05:22:38.362Z,41.66
2022-12-05T05:23:38.310Z,41.66
2022-12-05T05:24:38.318Z,41.66
2022-12-05T05:25:38.268Z,41.66
2022-12-05T05:26:38.310Z,41.85
2022-12-05T05:27:38.307Z,41.95
2022-12-05T05:28:38.290Z,42.25
2022-12-05T05:29:38.245Z,42.45
2022-12-05T05:30:38.234Z,42.55
2022-12-05T05:31:38.360Z,42.55
2022-12-05T05:32:38.238Z,42.65
2022-12-05T05:33:38.177Z,42.75
2022-12-05T05:34:38.233Z,42.75
2022-12-05T05:35:38.847Z,42.75
2022-12-05T05:36:38.173Z,42.94
2022-12-05T05:37:38.171Z,43.05
2022-12-05T05:38:38.158Z,42.94
2022-12-05T05:39:38.107Z,43.15
2022-12-05T05:40:38.159Z,43.15
2022-12-05T05:41:38.088Z,43.05
2022-12-05T05:42:38.130Z,43.44
2022-12-05T05:43:38.098Z,43.35
2022-12-05T05:44:38.096Z,43.44
2022-12-05T05:45:38.086Z,43.35
2022-12-05T05:46:38.132Z,43.44
2022-12-05T05:47:38.033Z,43.35
2022-12-05T05:48:38.064Z,43.44
2022-12-05T05:49:38.003Z,43.35
2022-12-05T05:50:38.058Z,43.35
2022-12-05T05:51:38.008Z,43.24
2022-12-05T05:52:37.998Z,42.45
2022-12-05T05:53:37.985Z,42.45
2022-12-05T05:54:37.975Z,42.65
2022-12-05T05:55:37.961Z,43.05
2022-12-05T05:56:37.982Z,43.24
2022-12-05T05:57:37.964Z,43.15
2022-12-05T05:58:37.931Z,43.15
2022-12-05T05:59:37.890Z,43.24
2022-12-05T06:00:37.946Z,43.24
2022-12-05T06:01:37.878Z,43.24
2022-12-05T06:02:38.073Z,43.24
2022-12-05T06:03:38.007Z,43.35
2022-12-05T06:04:37.882Z,43.44
2022-12-05T06:05:37.853Z,43.54
2022-12-05T06:06:37.853Z,43.84
2022-12-05T06:07:37.897Z,43.84
2022-12-05T06:08:37.864Z,43.94
2022-12-05T06:09:37.786Z,43.94
2022-12-05T06:10:37.829Z,43.94
2022-12-05T06:11:37.792Z,43.94
2022-12-05T06:12:37.783Z,44.04
2022-12-05T06:13:37.816Z,44.24
2022-12-05T06:14:37.812Z,44.24
2022-12-05T06:15:37.780Z,44.34
2022-12-05T06:16:37.764Z,44.44
2022-12-05T06:17:37.725Z,44.54
2022-12-05T06:18:37.724Z,44.54
2022-12-05T06:19:37.710Z,44.44
2022-12-05T06:20:37.729Z,44.44
2022-12-05T06:21:37.657Z,44.54
2022-12-05T06:22:37.869Z,44.54
2022-12-05T06:23:37.664Z,44.44
2022-12-05T06:24:37.782Z,44.24
2022-12-05T06:25:37.638Z,43.94
2022-12-05T06:26:37.745Z,43.84
2022-12-05T06:27:37.598Z,44.24
2022-12-05T06:28:37.781Z,44.44
2022-12-05T06:29:37.639Z,44.54
2022-12-05T06:30:37.617Z,44.54
2022-12-05T06:31:37.675Z,44.44
2022-12-05T06:32:37.730Z,44.54
2022-12-05T06:33:37.602Z,44.14
2022-12-05T06:34:38.445Z,44.34
2022-12-05T06:35:37.743Z,44.44
2022-12-05T06:36:37.522Z,44.24
2022-12-05T06:37:38.457Z,44.04
2022-12-05T06:38:41.791Z,44.14
2022-12-05T06:39:37.481Z,44.24
2022-12-05T06:40:37.501Z,44.24
2022-12-05T06:41:37.446Z,44.14
2022-12-05T06:42:37.480Z,44.54
2022-12-05T06:43:37.467Z,44.84
2022-12-05T06:44:37.477Z,44.84
2022-12-05T06:45:37.479Z,44.93
2022-12-05T06:46:37.413Z,44.84
2022-12-05T06:47:37.382Z,44.93
2022-12-05T06:48:37.412Z,44.93
2022-12-05T06:49:38.263Z,44.92
2022-12-05T06:50:37.399Z,44.42
2022-12-05T06:51:37.362Z,44.24
2022-12-05T06:52:37.384Z,43.05
2022-12-05T06:53:37.344Z,43.32
2022-12-05T06:54:37.361Z,44.14
2022-12-05T06:55:37.289Z,44.04
2022-12-05T06:56:37.616Z,43.92
2022-12-05T06:57:37.293Z,44.04
2022-12-05T06:58:37.313Z,44.14
2022-12-05T06:59:37.274Z,44.24
2022-12-05T07:00:37.372Z,44.34
2022-12-05T07:01:37.417Z,44.34
2022-12-05T07:02:37.322Z,44.34
2022-12-05T07:03:37.228Z,44.44
2022-12-05T07:04:37.225Z,44.44
2022-12-05T07:05:37.219Z,44.34
2022-12-05T07:06:37.218Z,44.34
2022-12-05T07:07:37.275Z,43.84
2022-12-05T07:08:37.226Z,44.04
2022-12-05T07:09:37.174Z,44.14
2022-12-05T07:10:37.180Z,44.34
2022-12-05T07:11:37.202Z,44.54
2022-12-05T07:12:37.183Z,44.64
2022-12-05T07:13:37.132Z,44.74
2022-12-05T07:14:47.730Z,44.64
2022-12-05T07:15:37.077Z,44.74
2022-12-05T07:16:37.273Z,44.74
2022-12-05T07:17:37.121Z,44.84
2022-12-05T07:18:37.066Z,44.74
2022-12-05T07:19:37.027Z,44.84
2022-12-05T07:21:10.155Z,44.84
2022-12-05T07:21:37.010Z,44.93
2022-12-05T07:22:37.086Z,45.03
2022-12-05T07:23:37.014Z,44.93
2022-12-05T07:24:37.019Z,44.93
2022-12-05T07:25:37.007Z,45.03
2022-12-05T07:26:36.978Z,45.03
2022-12-05T07:27:36.939Z,45.14
2022-12-05T07:28:36.984Z,45.14
2022-12-05T07:29:36.961Z,45.53
2022-12-05T07:30:36.963Z,45.43
2022-12-05T07:31:37.061Z,45.43
2022-12-05T07:32:36.916Z,45.73
2022-12-05T07:33:36.876Z,45.63
2022-12-05T07:34:36.929Z,45.73
2022-12-05T07:35:36.889Z,45.83
2022-12-05T07:36:36.876Z,46.01
2022-12-05T07:37:36.893Z,45.83
2022-12-05T07:38:36.850Z,45.83
2022-12-05T07:39:36.815Z,45.93
2022-12-05T07:40:36.855Z,45.83
2022-12-05T07:41:36.789Z,46.33
2022-12-05T07:42:36.850Z,46.23
2022-12-05T07:43:36.794Z,46.33
2022-12-05T07:44:36.783Z,46.13
2022-12-05T07:45:36.907Z,46.23
2022-12-05T07:46:36.763Z,46.13
2022-12-05T07:47:36.765Z,46.42
2022-12-05T07:48:36.772Z,46.53
2022-12-05T07:49:36.758Z,46.53
2022-12-05T07:50:36.696Z,46.42
2022-12-05T07:51:36.714Z,46.23
2022-12-05T07:52:36.707Z,46.53
2022-12-05T07:53:36.687Z,46.33
2022-12-05T07:54:36.678Z,46.42
2022-12-05T07:55:36.697Z,46.11
2022-12-05T07:56:36.624Z,46.23
2022-12-05T07:57:36.699Z,46.23
2022-12-05T07:58:36.683Z,46.13
2022-12-05T07:59:36.637Z,46.13
2022-12-05T08:00:36.617Z,46.13
2022-12-05T08:01:36.643Z,46.13
2022-12-05T08:02:40.669Z,45.93
2022-12-05T08:03:36.601Z,46.03
2022-12-05T08:04:36.554Z,45.83
2022-12-05T08:05:36.564Z,45.83
2022-12-05T08:06:36.578Z,45.83
2022-12-05T08:07:36.637Z,45.73
2022-12-05T08:08:36.496Z,45.63
2022-12-05T08:09:36.541Z,45.71
2022-12-05T08:10:36.498Z,45.73
2022-12-05T08:11:36.504Z,45.73
2022-12-05T08:12:36.499Z,45.51
2022-12-05T08:13:36.476Z,45.41
2022-12-05T08:14:36.465Z,45.41
2022-12-05T08:15:36.471Z,45.41
2022-12-05T08:16:36.455Z,45.43
2022-12-05T08:17:36.454Z,45.43
2022-12-05T08:18:36.400Z,45.31
2022-12-05T08:19:36.406Z,45.33
2022-12-05T08:20:36.395Z,45.33
2022-12-05T08:21:36.492Z,45.33
2022-12-05T08:22:36.345Z,45.43
2022-12-05T08:23:36.383Z,45.43
2022-12-05T08:24:36.350Z,45.43
2022-12-05T08:25:36.341Z,45.43
2022-12-05T08:26:36.357Z,45.43
2022-12-05T08:27:36.417Z,45.53
2022-12-05T08:28:36.299Z,45.43
2022-12-05T08:29:36.341Z,45.53
2022-12-05T08:30:36.282Z,45.53
2022-12-05T08:31:36.274Z,45.53
2022-12-05T08:32:36.270Z,45.53
2022-12-05T08:33:36.271Z,45.23
2022-12-05T08:34:36.263Z,45.43
2022-12-05T08:35:36.263Z,45.33
2022-12-05T08:36:36.200Z,45.14
2022-12-05T08:37:36.206Z,45.23
2022-12-05T08:38:36.216Z,45.23
2022-12-05T08:39:38.595Z,45.14
2022-12-05T08:40:36.154Z,45.03
2022-12-05T08:41:36.415Z,45.03
2022-12-05T08:42:36.128Z,45.14
2022-12-05T08:43:36.174Z,45.03
2022-12-05T08:44:36.138Z,45.14
2022-12-05T08:45:36.128Z,45.03
2022-12-05T08:46:36.281Z,45.01
2022-12-05T08:47:36.135Z,44.92
2022-12-05T08:48:36.067Z,44.71
2022-12-05T08:49:36.118Z,44.93
2022-12-05T08:50:36.045Z,44.81
2022-12-05T08:51:36.066Z,44.71
2022-12-05T08:52:36.044Z,44.81
2022-12-05T08:53:39.655Z,44.74
2022-12-05T08:54:36.030Z,44.64
2022-12-05T08:55:36.062Z,44.84
2022-12-05T08:56:36.001Z,44.84
2022-12-05T08:57:36.024Z,44.93
2022-12-05T08:58:35.964Z,44.74
2022-12-05T08:59:36.021Z,44.84
2022-12-05T09:00:36.029Z,45.14
2022-12-05T09:01:36.025Z,45.03
2022-12-05T09:02:36.000Z,44.84
2022-12-05T09:03:35.962Z,44.93
2022-12-05T09:04:35.921Z,44.93
2022-12-05T09:05:35.930Z,44.84
2022-12-05T09:06:35.914Z,45.03
2022-12-05T09:07:35.960Z,45.03
2022-12-05T09:08:35.870Z,44.84
2022-12-05T09:09:35.921Z,44.93
2022-12-05T09:10:35.823Z,45.14
2022-12-05T09:11:35.850Z,45.03
2022-12-05T09:12:35.832Z,44.84
2022-12-05T09:13:35.866Z,45.03
2022-12-05T09:14:35.828Z,44.93
2022-12-05T09:15:35.846Z,44.93
2022-12-05T09:16:38.463Z,45.03
2022-12-05T09:17:35.806Z,44.84
2022-12-05T09:18:35.737Z,44.93
2022-12-05T09:19:35.783Z,44.93
2022-12-05T09:20:35.743Z,44.93
2022-12-05T09:21:35.735Z,45.03
2022-12-05T09:22:35.726Z,45.14
2022-12-05T09:23:35.759Z,44.84
2022-12-05T09:24:35.674Z,45.03
2022-12-05T09:25:35.695Z,44.84
2022-12-05T09:26:35.684Z,44.93
2022-12-05T09:27:35.733Z,44.93
2022-12-05T09:28:35.655Z,44.84
2022-12-05T09:29:35.673Z,44.84
2022-12-05T09:30:35.621Z,44.84
2022-12-05T09:31:35.719Z,44.93
2022-12-05T09:32:35.612Z,44.74
2022-12-05T09:33:35.642Z,44.74
2022-12-05T09:34:35.595Z,44.93
2022-12-05T09:35:35.644Z,44.93
2022-12-05T09:36:35.541Z,44.93
2022-12-05T09:37:40.103Z,44.93
2022-12-05T09:38:35.523Z,44.93
2022-12-05T09:39:35.541Z,44.84
2022-12-05T09:40:35.528Z,44.84
2022-12-05T09:41:35.544Z,44.93
2022-12-05T09:42:35.476Z,44.84
2022-12-05T09:43:35.492Z,44.84
2022-12-05T09:44:35.490Z,44.84
2022-12-05T09:45:35.474Z,44.74
2022-12-05T09:46:35.824Z,44.74
2022-12-05T09:47:35.505Z,44.74
2022-12-05T09:48:35.472Z,44.74
2022-12-05T09:49:35.455Z,44.74
2022-12-05T09:50:35.410Z,44.74
2022-12-05T09:51:35.423Z,44.64
2022-12-05T09:52:35.404Z,44.64
2022-12-05T09:53:35.419Z,44.64
2022-12-05T09:54:35.373Z,44.54
2022-12-05T09:55:35.407Z,44.54
2022-12-05T09:56:35.331Z,44.64
2022-12-05T09:57:35.393Z,44.54
2022-12-05T09:58:35.305Z,44.64
2022-12-05T09:59:35.321Z,44.44
2022-12-05T10:00:35.326Z,44.74
2022-12-05T10:01:35.357Z,44.93
2022-12-05T10:02:35.289Z,45.03
2022-12-05T10:03:35.306Z,45.14
2022-12-05T10:04:35.332Z,45.23
2022-12-05T10:05:35.291Z,45.41
2022-12-05T10:06:35.972Z,45.51
2022-12-05T10:07:35.254Z,45.51
2022-12-05T10:08:35.237Z,45.51
2022-12-05T10:09:35.216Z,45.41
2022-12-05T10:10:35.211Z,45.51
2022-12-05T10:11:35.222Z,45.61
2022-12-05T10:12:35.158Z,45.61
2022-12-05T10:13:35.169Z,45.61
2022-12-05T10:14:35.158Z,45.59
2022-12-05T10:15:35.327Z,45.59
2022-12-05T10:16:35.162Z,45.59
2022-12-05T10:17:35.156Z,45.68
2022-12-05T10:18:35.166Z,45.68
2022-12-05T10:19:35.106Z,45.68
2022-12-05T10:20:35.107Z,45.68
2022-12-05T10:21:35.083Z,45.79
2022-12-05T10:22:35.069Z,45.89
2022-12-05T10:23:56.452Z,45.98
2022-12-05T10:24:35.029Z,45.86
2022-12-05T10:25:35.087Z,45.86
2022-12-05T10:26:35.002Z,45.86
2022-12-05T10:27:40.088Z,45.86
2022-12-05T10:28:35.004Z,45.86
2022-12-05T10:29:35.074Z,45.86
2022-12-05T10:30:35.073Z,45.86
2022-12-05T10:31:35.037Z,45.86
2022-12-05T10:32:34.959Z,45.86
2022-12-05T10:33:34.984Z,45.96
2022-12-05T10:34:34.938Z,45.96
2022-12-05T10:35:35.137Z,45.86
2022-12-05T10:36:34.887Z,45.86
2022-12-05T10:37:34.963Z,45.84
2022-12-05T10:38:34.876Z,45.74
2022-12-05T10:39:34.889Z,45.64
2022-12-05T10:40:34.906Z,45.64
2022-12-05T10:41:34.861Z,45.64
2022-12-05T10:42:34.856Z,45.64
2022-12-05T10:43:34.864Z,45.64
2022-12-05T10:44:34.816Z,45.64
2022-12-05T10:45:34.824Z,45.74
2022-12-05T10:46:34.941Z,45.94
2022-12-05T10:47:34.850Z,45.84
2022-12-05T10:48:34.796Z,45.84
2022-12-05T10:49:34.808Z,45.94
2022-12-05T10:50:34.735Z,45.84
2022-12-05T10:51:37.730Z,45.94
2022-12-05T10:52:34.757Z,45.94
2022-12-05T10:53:34.739Z,45.94
2022-12-05T10:54:34.729Z,43.36
2022-12-05T10:55:34.741Z,42.47
2022-12-05T10:56:34.707Z,42.27
2022-12-05T10:57:34.719Z,42.37
2022-12-05T10:58:34.662Z,42.66
2022-12-05T10:59:34.675Z,42.96
2022-12-05T11:00:34.672Z,42.99
2022-12-05T11:01:34.678Z,43.38
2022-12-05T11:02:34.647Z,43.48
2022-12-05T11:03:34.656Z,43.68
2022-12-05T11:04:34.653Z,43.78
2022-12-05T11:05:34.709Z,43.98
2022-12-05T11:06:34.604Z,44.10
2022-12-05T11:07:34.669Z,44.29
2022-12-05T11:09:03.150Z,44.40
2022-12-05T11:09:34.575Z,44.49
2022-12-05T11:10:34.550Z,44.70
2022-12-05T11:11:34.593Z,44.79
2022-12-05T11:12:34.507Z,45.01
2022-12-05T11:13:34.543Z,45.11
2022-12-05T11:14:34.487Z,45.31
2022-12-05T11:15:34.524Z,45.31
2022-12-05T11:16:34.552Z,45.41
2022-12-05T11:17:34.511Z,45.41
2022-12-05T11:18:34.452Z,45.81
2022-12-05T11:19:34.480Z,45.81
2022-12-05T11:20:34.546Z,45.90
2022-12-05T11:21:34.432Z,45.71
2022-12-05T11:22:34.648Z,45.51
2022-12-05T11:23:34.425Z,45.51
2022-12-05T11:24:34.384Z,45.41
2022-12-05T11:25:34.433Z,45.41
2022-12-05T11:26:34.405Z,42.23
2022-12-05T11:27:34.380Z,40.84
2022-12-05T11:28:34.354Z,40.84
2022-12-05T11:29:34.352Z,42.03
2022-12-05T11:30:34.482Z,42.93
2022-12-05T11:31:34.395Z,43.72
2022-12-05T11:32:34.366Z,44.12
2022-12-05T11:33:34.306Z,44.04
2022-12-05T11:34:34.472Z,44.14
2022-12-05T11:35:34.420Z,44.14
2022-12-05T11:36:34.271Z,44.04
2022-12-05T11:37:34.282Z,44.04
2022-12-05T11:38:34.220Z,44.24
2022-12-05T11:39:34.232Z,44.14
2022-12-05T11:40:38.484Z,44.24
2022-12-05T11:41:34.213Z,44.24
2022-12-05T11:42:34.228Z,44.24
2022-12-05T11:43:34.389Z,44.14
2022-12-05T11:44:34.200Z,43.84
2022-12-05T11:45:34.297Z,43.44
2022-12-05T11:46:34.226Z,43.94
2022-12-05T11:47:34.170Z,44.14
2022-12-05T11:48:34.175Z,44.14
2022-12-05T11:49:34.107Z,44.24
2022-12-05T11:50:34.146Z,44.24
2022-12-05T11:51:34.097Z,44.14
2022-12-05T11:52:40.259Z,44.34
2022-12-05T11:53:34.085Z,44.34
2022-12-05T11:55:04.057Z,44.34
2022-12-05T11:55:34.086Z,44.24
2022-12-05T11:56:34.075Z,44.24
2022-12-05T11:57:34.012Z,44.24
2022-12-05T11:58:34.033Z,44.44
2022-12-05T11:59:34.014Z,44.44
2022-12-05T12:00:34.041Z,44.34
2022-12-05T12:01:34.030Z,44.44
2022-12-05T12:02:34.164Z,44.54
2022-12-05T12:03:34.168Z,44.44
2022-12-05T12:04:34.135Z,44.34
2022-12-05T12:05:33.970Z,44.34
2022-12-05T12:06:33.967Z,44.24
2022-12-05T12:07:33.995Z,44.24
2022-12-05T12:08:33.970Z,44.34
2022-12-05T12:09:33.895Z,44.24
2022-12-05T12:10:33.956Z,44.34
2022-12-05T12:11:33.870Z,44.34
2022-12-05T12:12:33.915Z,44.34
2022-12-05T12:13:33.883Z,44.24
2022-12-05T12:14:33.919Z,44.34
2022-12-05T12:15:33.846Z,44.34
2022-12-05T12:16:33.903Z,44.24
2022-12-05T12:17:33.850Z,44.24
2022-12-05T12:18:33.854Z,44.24
2022-12-05T12:19:33.808Z,43.54
2022-12-05T12:20:33.820Z,43.84
2022-12-05T12:21:38.362Z,44.04
2022-12-05T12:22:33.806Z,44.14
2022-12-05T12:23:33.746Z,44.14
2022-12-05T12:24:34.249Z,44.24
2022-12-05T12:25:33.743Z,44.24
2022-12-05T12:26:33.723Z,44.14
2022-12-05T12:27:33.713Z,44.24
2022-12-05T12:28:33.734Z,44.24
2022-12-05T12:29:33.673Z,44.24
2022-12-05T12:30:33.710Z,44.34
2022-12-05T12:31:33.687Z,44.24
2022-12-05T12:32:33.669Z,44.24
2022-12-05T12:33:33.663Z,44.04
2022-12-05T12:34:33.649Z,43.94
2022-12-05T12:35:33.633Z,44.14
2022-12-05T12:36:33.642Z,44.04
2022-12-05T12:37:33.575Z,44.24
2022-12-05T12:38:33.652Z,44.24
2022-12-05T12:39:33.571Z,44.14
2022-12-05T12:40:33.577Z,44.24
2022-12-05T12:41:33.565Z,44.14
2022-12-05T12:42:33.554Z,44.24
2022-12-05T12:43:53.198Z,44.14
2022-12-05T12:44:33.569Z,44.24
2022-12-05T12:45:33.516Z,44.04
2022-12-05T12:46:33.640Z,44.04
2022-12-05T12:47:33.503Z,44.04
2022-12-05T12:48:33.514Z,44.04
2022-12-05T12:49:33.444Z,44.14
2022-12-05T12:50:36.503Z,44.14
2022-12-05T12:51:33.431Z,44.26
2022-12-05T12:52:33.443Z,44.16
2022-12-05T12:53:33.435Z,44.26